Terminal Aerodrome Forecast
Issued by NWS North Platte, NE

Home | Current Version | Previous Version | Graphics & Text | Print | Product List | Glossary On
Versions: 1 2 3 4 5 6 7 8 9 10 11 12 13 14 15 16 17 18 19
000
FTUS43 KLBF 242300
TAFVTN
TAF
KVTN 242320Z 2500/2524 33012KT P6SM SCT050 BKN100
     FM250400 28006KT P6SM BKN040 BKN080
     FM251700 23011KT P6SM BKN070 PROB30 2521/2524 5SM -SHRA OVC030=

USA.gov is the U.S. government's official web portal to all federal, state and local government web resources and services.